Time;durP1;ratioP1;P1;durP2;ratioP2;P2;SDS_P1;SDS_P2;PMS_P1;PMS_P2;Temp;Humidity;BMP_temperature;BMP_pressure;BME280_temperature;BME280_humidity;BME280_pressure;Samples;Min_cycle;Max_cycle;Signal;HPM_P1;HPM_P2
2022/10/05 00:01:15;;;;;;;9.45;5.20;;;13.20;99.90;;;;;;5009395;28;20048;-76
2022/10/05 00:03:41;;;;;;;9.10;5.32;;;13.20;99.90;;;;;;5003011;28;20030;-75
2022/10/05 00:06:08;;;;;;;8.82;5.80;;;13.30;99.90;;;;;;5003139;28;20605;-75
2022/10/05 00:08:34;;;;;;;7.93;5.07;;;13.30;99.90;;;;;;5004185;28;20053;-75
2022/10/05 00:11:00;;;;;;;12.32;6.05;;;13.30;99.90;;;;;;5005145;28;20493;-74
2022/10/05 00:13:29;;;;;;;8.18;4.90;;;13.30;99.90;;;;;;5000654;28;20525;-75
2022/10/05 00:16:04;;;;;;;11.35;5.47;;;13.40;99.90;;;;;;5001923;28;20053;-74
2022/10/05 00:18:31;;;;;;;8.20;5.70;;;13.40;99.90;;;;;;5004272;28;20033;-75
2022/10/05 00:20:57;;;;;;;13.15;6.07;;;13.40;99.90;;;;;;5008526;28;20018;-74
2022/10/05 00:23:30;;;;;;;11.93;5.18;;;13.40;99.90;;;;;;4999735;28;20099;-74
2022/10/05 00:26:05;;;;;;;9.80;5.20;;;13.40;99.90;;;;;;5001527;28;20030;-75
2022/10/05 00:28:31;;;;;;;10.68;5.55;;;13.40;99.90;;;;;;5002518;28;20064;-75
2022/10/05 00:30:58;;;;;;;9.65;5.45;;;13.50;99.90;;;;;;5003777;28;20065;-75
2022/10/05 00:33:24;;;;;;;9.60;5.05;;;13.50;99.90;;;;;;5004834;28;20036;-75
2022/10/05 00:35:50;;;;;;;12.07;5.70;;;13.50;99.90;;;;;;5004917;28;20409;-75
2022/10/05 00:38:16;;;;;;;10.70;5.75;;;13.50;99.90;;;;;;4997146;28;20033;-75
2022/10/05 00:41:03;;;;;;;8.02;4.93;;;13.50;99.90;;;;;;5017834;28;20022;-75
2022/10/05 00:43:37;;;;;;;7.35;5.07;;;13.50;99.90;;;;;;5004663;28;20022;-75
2022/10/05 00:46:32;;;;;;;11.30;5.70;;;13.60;99.90;;;;;;5006856;28;20041;-75
2022/10/05 00:49:16;;;;;;;9.77;5.75;;;13.60;99.90;;;;;;5000354;28;21018;-75
2022/10/05 00:52:21;;;;;;;7.18;4.80;;;13.60;99.90;;;;;;4996391;28;20272;-74
2022/10/05 00:55:09;;;;;;;10.00;5.57;;;13.60;99.90;;;;;;5024794;28;20187;-75
2022/10/05 00:57:46;;;;;;;9.10;5.05;;;13.60;99.90;;;;;;5008592;28;20033;-75
2022/10/05 01:00:17;;;;;;;7.93;5.35;;;13.60;99.90;;;;;;5022488;28;20089;-75
2022/10/05 01:03:00;;;;;;;12.13;5.32;;;13.60;99.90;;;;;;5015406;28;20022;-75
2022/10/05 01:05:47;;;;;;;7.40;4.55;;;13.60;99.90;;;;;;5006915;28;20083;-75
2022/10/05 01:08:25;;;;;;;8.55;4.80;;;13.60;99.90;;;;;;5003231;28;22557;-76
2022/10/05 01:11:06;;;;;;;9.50;5.00;;;13.70;99.90;;;;;;5001717;28;20026;-75
2022/10/05 01:13:43;;;;;;;;;;;13.70;99.90;;;;;;4988003;28;20037;-76
2022/10/05 01:16:34;;;;;;;8.43;5.03;;;13.70;99.90;;;;;;5003085;28;19913;-75
2022/10/05 01:19:30;;;;;;;8.00;4.80;;;13.60;99.90;;;;;;4998017;28;20034;-74
2022/10/05 01:22:09;;;;;;;10.15;5.07;;;13.70;99.90;;;;;;5004493;28;20044;-75
2022/10/05 01:24:45;;;;;;;9.38;4.80;;;13.70;99.90;;;;;;5003213;28;20041;-75
2022/10/05 01:27:33;;;;;;;8.15;5.35;;;13.70;99.90;;;;;;5003791;28;20037;-75
2022/10/05 01:30:12;;;;;;;11.93;5.20;;;13.70;99.90;;;;;;4983086;28;20045;-76
2022/10/05 01:33:07;;;;;;;11.80;6.55;;;13.70;99.90;;;;;;5003190;28;20042;-75
2022/10/05 01:35:45;;;;;;;8.02;5.40;;;13.70;99.90;;;;;;4994059;28;20038;-75
2022/10/05 01:38:28;;;;;;;10.02;5.80;;;13.70;99.90;;;;;;5000673;28;20765;-75
2022/10/05 01:41:00;;;;;;;8.77;5.20;;;13.70;99.90;;;;;;5016522;28;20018;-75
2022/10/05 01:43:39;;;;;;;;;;;13.70;99.90;;;;;;5004178;28;20026;-75
2022/10/05 01:46:21;;;;;;;9.40;5.30;;;13.70;99.90;;;;;;5003511;28;19913;-75
2022/10/05 01:49:10;;;;;;;9.07;5.15;;;13.70;99.90;;;;;;4984138;28;20044;-75
2022/10/05 01:52:07;;;;;;;11.75;5.22;;;13.60;99.90;;;;;;5002213;28;20121;-76
2022/10/05 01:55:01;;;;;;;10.27;5.63;;;13.60;99.90;;;;;;5000020;28;20042;-76
2022/10/05 01:58:00;;;;;;;10.85;5.57;;;13.70;99.90;;;;;;5002058;28;20028;-75
2022/10/05 02:00:28;;;;;;;15.07;6.20;;;13.60;99.90;;;;;;5004983;28;20034;-75
2022/10/05 02:03:09;;;;;;;11.80;5.82;;;13.70;99.90;;;;;;5003266;28;21334;-75
2022/10/05 02:05:43;;;;;;;12.63;6.07;;;13.70;99.90;;;;;;5005403;28;20037;-76
2022/10/05 02:08:22;;;;;;;9.80;5.32;;;13.70;99.90;;;;;;5001369;28;20524;-75
2022/10/05 02:11:07;;;;;;;10.18;5.68;;;13.70;99.90;;;;;;5015774;28;20033;-75
2022/10/05 02:14:09;;;;;;;9.50;5.95;;;13.70;99.90;;;;;;5002255;28;20036;-76
2022/10/05 02:16:41;;;;;;;7.93;5.25;;;13.70;99.90;;;;;;4992475;28;20038;-75
2022/10/05 02:19:16;;;;;;;10.82;6.07;;;13.70;99.90;;;;;;4986305;28;20032;-75
2022/10/05 02:21:46;;;;;;;7.70;5.43;;;13.70;99.90;;;;;;5019694;28;20033;-75
2022/10/05 02:24:20;;;;;;;8.40;5.40;;;13.80;99.90;;;;;;5002919;28;20026;-75
2022/10/05 02:26:47;;;;;;;13.18;5.80;;;13.70;99.90;;;;;;5002748;28;20072;-75
2022/10/05 02:29:16;;;;;;;9.57;5.32;;;13.70;99.90;;;;;;5003410;28;20053;-75
2022/10/05 02:31:44;;;;;;;13.00;6.35;;;13.70;99.90;;;;;;5001777;28;20026;-75
2022/10/05 02:34:26;;;;;;;8.93;5.47;;;13.70;99.90;;;;;;4998837;28;20030;-75
2022/10/05 02:37:00;;;;;;;9.15;5.93;;;13.80;99.90;;;;;;5000208;28;20034;-75
2022/10/05 02:39:41;;;;;;;11.90;5.22;;;13.70;99.90;;;;;;5000726;28;20026;-75
2022/10/05 02:42:13;;;;;;;9.15;5.22;;;13.80;99.90;;;;;;5006252;28;20022;-76
2022/10/05 02:45:03;;;;;;;14.77;5.57;;;13.70;99.90;;;;;;5003421;28;20026;-75
2022/10/05 02:47:45;;;;;;;10.05;5.10;;;13.70;99.90;;;;;;5000758;28;20109;-76
2022/10/05 02:50:25;;;;;;;7.47;5.10;;;13.70;99.90;;;;;;5004826;28;20473;-75
2022/10/05 02:53:06;;;;;;;9.15;6.05;;;13.70;99.90;;;;;;4998202;28;20033;-75
2022/10/05 02:55:31;;;;;;;8.00;5.20;;;13.70;99.90;;;;;;5003128;28;20604;-75
2022/10/05 02:58:14;;;;;;;7.80;5.13;;;13.70;99.90;;;;;;4999527;28;20101;-75
2022/10/05 03:00:53;;;;;;;8.23;5.57;;;13.70;99.90;;;;;;5000207;28;20547;-75
2022/10/05 03:03:35;;;;;;;10.07;5.70;;;13.70;99.90;;;;;;5001090;28;20033;-75
2022/10/05 03:06:14;;;;;;;10.15;5.82;;;13.70;99.90;;;;;;5003272;28;20028;-76
2022/10/05 03:08:51;;;;;;;9.27;5.82;;;13.70;99.90;;;;;;5001558;28;20037;-75
2022/10/05 03:11:41;;;;;;;9.00;5.50;;;13.70;99.90;;;;;;4986911;28;20130;-76
2022/10/05 03:14:10;;;;;;;8.18;5.03;;;13.70;99.90;;;;;;5008258;28;20025;-75
2022/10/05 03:16:58;;;;;;;11.02;6.40;;;13.70;99.90;;;;;;5004207;28;20076;-75
2022/10/05 03:19:45;;;;;;;9.90;6.05;;;13.70;99.90;;;;;;5018850;28;20077;-75
2022/10/05 03:22:49;;;;;;;17.45;6.80;;;13.70;99.90;;;;;;4988711;28;22146;-75
2022/10/05 03:25:40;;;;;;;10.20;5.80;;;13.70;99.90;;;;;;5001761;28;20073;-75
2022/10/05 03:28:41;;;;;;;12.43;6.82;;;13.70;99.90;;;;;;5003724;28;20026;-75
2022/10/05 03:31:32;;;;;;;10.43;5.97;;;13.70;99.90;;;;;;5001439;28;20044;-75
2022/10/05 03:34:26;;;;;;;11.43;6.75;;;13.70;99.90;;;;;;5017264;28;20049;-75
2022/10/05 03:37:14;;;;;;;10.45;6.00;;;13.70;99.90;;;;;;5005208;28;20033;-75
2022/10/05 03:40:02;;;;;;;10.50;6.22;;;13.70;99.90;;;;;;5005105;28;20033;-75
2022/10/05 03:43:10;;;;;;;11.75;6.22;;;13.70;99.90;;;;;;4999417;28;20034;-75
2022/10/05 03:45:47;;;;;;;11.95;5.65;;;13.70;99.90;;;;;;4993234;28;20030;-75
2022/10/05 03:48:30;;;;;;;9.77;6.07;;;13.70;99.90;;;;;;5018995;28;20087;-76
2022/10/05 03:51:21;;;;;;;13.98;6.05;;;13.80;99.90;;;;;;5006396;28;20033;-75
2022/10/05 03:53:53;;;;;;;9.23;6.63;;;13.80;99.90;;;;;;5004412;28;20056;-75
2022/10/05 03:56:36;;;;;;;10.07;6.30;;;13.80;99.90;;;;;;4986168;28;20079;-75
2022/10/05 03:59:23;;;;;;;14.65;6.85;;;13.70;99.90;;;;;;5006132;28;20038;-75
2022/10/05 04:01:56;;;;;;;12.50;6.05;;;13.80;99.90;;;;;;5004157;28;20084;-75
2022/10/05 04:04:45;;;;;;;9.88;6.05;;;13.70;99.90;;;;;;5008634;28;20030;-75
2022/10/05 04:07:41;;;;;;;14.05;6.43;;;13.80;99.90;;;;;;4998088;28;20074;-75
2022/10/05 04:10:33;;;;;;;10.93;6.57;;;13.80;99.90;;;;;;5005713;28;20034;-76
2022/10/05 04:13:10;;;;;;;10.57;6.20;;;13.80;99.90;;;;;;5004833;28;20053;-75
2022/10/05 04:16:05;;;;;;;11.25;7.18;;;13.80;99.90;;;;;;5004234;28;20026;-75
2022/10/05 04:18:44;;;;;;;13.85;6.97;;;13.80;99.90;;;;;;5010795;28;20134;-75
2022/10/05 04:21:34;;;;;;;11.43;7.57;;;13.80;99.90;;;;;;5004739;28;20030;-76
2022/10/05 04:24:12;;;;;;;10.75;7.40;;;13.80;99.90;;;;;;5006065;28;20108;-75
2022/10/05 04:26:49;;;;;;;15.80;7.47;;;13.80;99.90;;;;;;5005861;28;20515;-75
2022/10/05 04:29:27;;;;;;;15.00;7.50;;;13.80;99.90;;;;;;5006466;28;20029;-75
2022/10/05 04:32:28;;;;;;;12.73;7.60;;;13.80;99.90;;;;;;5003621;28;20018;-75
2022/10/05 04:34:58;;;;;;;11.50;7.63;;;13.80;99.90;;;;;;4987005;28;20061;-76
2022/10/05 04:37:51;;;;;;;9.90;7.22;;;13.80;99.90;;;;;;5005170;28;20018;-75
2022/10/05 04:40:51;;;;;;;15.55;7.90;;;13.80;99.90;;;;;;5003206;28;20049;-76
2022/10/05 04:43:29;;;;;;;12.68;7.43;;;13.80;99.90;;;;;;4994872;28;20030;-76
2022/10/05 04:46:07;;;;;;;14.10;7.90;;;13.80;99.90;;;;;;5006403;28;20133;-75
2022/10/05 04:48:38;;;;;;;16.05;8.38;;;13.80;99.90;;;;;;5001090;28;20038;-75
2022/10/05 04:51:13;;;;;;;14.60;7.10;;;13.80;99.90;;;;;;5014580;28;20030;-75
2022/10/05 04:53:42;;;;;;;14.95;8.65;;;13.80;99.90;;;;;;5003557;28;20058;-76
2022/10/05 04:56:40;;;;;;;13.50;7.50;;;13.80;99.90;;;;;;5001609;28;20033;-75
2022/10/05 04:59:44;;;;;;;13.32;7.97;;;13.80;99.90;;;;;;5002645;28;20025;-74
2022/10/05 05:02:42;;;;;;;14.10;7.85;;;13.80;99.90;;;;;;4982409;28;20874;-75
2022/10/05 05:05:17;;;;;;;10.00;6.63;;;13.80;99.90;;;;;;5001577;28;20529;-75
2022/10/05 05:07:54;;;;;;;14.48;7.68;;;13.80;99.90;;;;;;4987506;28;20434;-75
2022/10/05 05:10:38;;;;;;;14.98;7.13;;;13.80;99.90;;;;;;5013982;28;20049;-76
2022/10/05 05:13:23;;;;;;;10.73;7.72;;;13.80;99.90;;;;;;5005336;28;20045;-75
2022/10/05 05:15:49;;;;;;;13.60;8.02;;;13.80;99.90;;;;;;5009093;28;20054;-75
2022/10/05 05:18:40;;;;;;;10.90;7.18;;;13.80;99.90;;;;;;5003381;28;20112;-76
2022/10/05 05:21:33;;;;;;;12.02;7.18;;;13.90;99.90;;;;;;5001336;28;20080;-74
2022/10/05 05:24:32;;;;;;;15.30;8.20;;;13.80;99.90;;;;;;5016021;28;20116;-76
2022/10/05 05:27:20;;;;;;;6.63;4.32;;;13.80;99.90;;;;;;5022325;28;20037;-74
2022/10/05 05:29:57;;;;;;;11.55;5.00;;;14.00;99.90;;;;;;5025872;28;20030;-75
2022/10/05 05:32:39;;;;;;;12.63;8.07;;;14.80;99.90;;;;;;5000291;28;20081;-75
2022/10/05 05:35:22;;;;;;;11.27;6.93;;;14.70;99.90;;;;;;5001346;28;20026;-73
2022/10/05 05:38:14;;;;;;;10.90;6.95;;;14.40;99.90;;;;;;5003594;28;20033;-74
2022/10/05 05:41:02;;;;;;;10.07;7.00;;;14.30;99.90;;;;;;4983900;28;20551;-74
2022/10/05 05:43:33;;;;;;;13.23;8.15;;;14.20;99.90;;;;;;4998731;28;20034;-75
2022/10/05 05:46:12;;;;;;;13.40;8.75;;;14.10;99.90;;;;;;4995990;28;20026;-73
2022/10/05 05:48:45;;;;;;;15.48;8.98;;;14.00;99.90;;;;;;4994524;28;20030;-73
2022/10/05 05:51:22;;;;;;;16.30;10.07;;;14.00;99.90;;;;;;4999847;28;20030;-73
2022/10/05 05:53:53;;;;;;;20.02;10.95;;;14.00;99.90;;;;;;4995968;28;20526;-73
2022/10/05 05:56:39;;;;;;;17.70;9.75;;;14.00;99.90;;;;;;5005178;28;20120;-74
2022/10/05 05:59:18;;;;;;;17.08;10.23;;;14.00;99.90;;;;;;4999111;28;20517;-74
2022/10/05 06:02:05;;;;;;;14.27;9.02;;;14.00;99.90;;;;;;5002009;28;20386;-74
2022/10/05 06:04:40;;;;;;;17.08;9.35;;;13.90;99.90;;;;;;5004297;28;20558;-74
2022/10/05 06:07:10;;;;;;;19.80;10.77;;;13.90;99.90;;;;;;4996523;28;20543;-73
2022/10/05 06:09:40;;;;;;;15.65;9.60;;;13.90;99.90;;;;;;5002495;28;20026;-71
2022/10/05 06:12:18;;;;;;;13.93;9.37;;;13.90;99.90;;;;;;5000815;28;20112;-74
2022/10/05 06:14:58;;;;;;;19.05;9.98;;;13.90;99.90;;;;;;5001984;28;20026;-74
2022/10/05 06:17:35;;;;;;;17.63;8.98;;;14.00;99.90;;;;;;5000089;28;20104;-74
2022/10/05 06:20:03;;;;;;;10.93;8.63;;;14.00;99.90;;;;;;5003526;28;20205;-74
2022/10/05 06:22:35;;;;;;;15.00;8.40;;;14.00;99.90;;;;;;4996542;28;20069;-74
2022/10/05 06:25:10;;;;;;;14.02;9.10;;;14.00;99.90;;;;;;5000657;28;20108;-74
2022/10/05 06:27:54;;;;;;;16.98;9.02;;;14.00;99.90;;;;;;5007412;28;20029;-74
2022/10/05 06:30:20;;;;;;;16.65;9.57;;;14.00;99.90;;;;;;4998308;28;20526;-74
2022/10/05 06:32:49;;;;;;;17.33;9.13;;;14.00;99.90;;;;;;4986471;28;20031;-74
2022/10/05 06:35:36;;;;;;;16.85;9.68;;;14.00;99.90;;;;;;5004731;28;20033;-74
2022/10/05 06:38:14;;;;;;;15.45;9.55;;;14.00;99.90;;;;;;5000872;28;20034;-73
2022/10/05 06:41:02;;;;;;;20.65;10.52;;;14.00;99.90;;;;;;5001585;28;20022;-73
2022/10/05 06:43:53;;;;;;;14.52;9.02;;;14.00;99.90;;;;;;5001956;28;20137;-75
2022/10/05 06:46:21;;;;;;;17.95;8.70;;;14.00;99.90;;;;;;5012216;28;20036;-74
2022/10/05 06:48:56;;;;;;;19.23;9.30;;;14.10;99.90;;;;;;4993592;28;20111;-74
2022/10/05 06:51:39;;;;;;;14.93;9.38;;;14.10;99.90;;;;;;5008983;28;20026;-74
2022/10/05 06:54:21;;;;;;;16.48;9.23;;;14.10;99.90;;;;;;5004773;28;20097;-74
2022/10/05 06:57:02;;;;;;;15.48;9.43;;;14.10;99.90;;;;;;5003139;28;20152;-74
2022/10/05 06:59:43;;;;;;;16.27;9.30;;;14.10;99.90;;;;;;5020683;28;20420;-74
2022/10/05 07:02:17;;;;;;;14.48;8.93;;;14.10;99.90;;;;;;5006899;28;20030;-74
2022/10/05 07:04:59;;;;;;;16.73;8.55;;;14.20;99.90;;;;;;4998584;28;20037;-73
2022/10/05 07:07:54;;;;;;;12.82;8.27;;;14.20;99.90;;;;;;5018731;28;20871;-73
2022/10/05 07:10:35;;;;;;;14.32;8.52;;;14.30;99.90;;;;;;5001107;28;20034;-74
2022/10/05 07:13:37;;;;;;;17.70;8.30;;;14.30;99.90;;;;;;5008967;28;20033;-74
2022/10/05 07:16:18;;;;;;;14.25;8.50;;;14.30;99.90;;;;;;5004205;28;20539;-74
2022/10/05 07:18:49;;;;;;;18.13;8.70;;;14.30;99.90;;;;;;5017688;28;20026;-75
2022/10/05 07:21:40;;;;;;;15.35;8.10;;;14.30;99.90;;;;;;5006419;28;20081;-75
2022/10/05 07:24:33;;;;;;;12.77;8.35;;;14.40;99.90;;;;;;5002086;28;20049;-74
2022/10/05 07:27:21;;;;;;;12.35;7.68;;;14.40;99.90;;;;;;5004609;28;20037;-74
2022/10/05 07:29:52;;;;;;;13.25;8.32;;;14.40;99.90;;;;;;5004549;28;20030;-74
2022/10/05 07:32:27;;;;;;;12.30;8.05;;;14.40;99.90;;;;;;5001118;28;20034;-74
2022/10/05 07:38:15;;;;;;;12.65;8.07;;;14.40;99.90;;;;;;5007416;28;20026;-74
2022/10/05 07:40:50;;;;;;;13.48;7.65;;;14.50;99.90;;;;;;5002782;28;20037;-74
2022/10/05 07:43:57;;;;;;;17.10;9.45;;;14.50;99.90;;;;;;5005530;28;20030;-74
2022/10/05 07:46:40;;;;;;;17.38;9.23;;;14.60;99.90;;;;;;4994072;28;20041;-74
2022/10/05 07:49:15;;;;;;;14.50;8.02;;;14.60;99.90;;;;;;4996766;28;20538;-74
2022/10/05 07:51:44;;;;;;;14.65;7.88;;;14.60;99.90;;;;;;5005813;28;20032;-73
2022/10/05 07:54:29;;;;;;;13.25;8.82;;;14.50;99.90;;;;;;5003870;28;20113;-74
2022/10/05 07:56:58;;;;;;;14.30;7.43;;;14.50;99.90;;;;;;5005937;28;20448;-73
2022/10/05 07:59:50;;;;;;;15.50;7.88;;;14.60;99.90;;;;;;5004135;28;20394;-75
2022/10/05 08:02:25;;;;;;;14.05;7.78;;;14.60;99.90;;;;;;5002715;28;20037;-74
2022/10/05 08:05:20;;;;;;;14.00;8.45;;;14.50;99.90;;;;;;5003031;28;20029;-74
2022/10/05 08:07:51;;;;;;;11.18;7.75;;;14.50;99.90;;;;;;5002154;28;20050;-74
2022/10/05 08:10:16;;;;;;;13.57;7.43;;;14.50;99.90;;;;;;4989426;28;20537;-74
2022/10/05 08:13:15;;;;;;;9.68;6.90;;;14.50;99.90;;;;;;5004576;28;20029;-74
2022/10/05 08:15:44;;;;;;;10.50;7.20;;;14.50;99.90;;;;;;5004681;28;20477;-73
2022/10/05 08:18:30;;;;;;;11.35;6.97;;;14.60;99.90;;;;;;5004298;28;20073;-74
2022/10/05 08:20:57;;;;;;;12.35;7.53;;;14.60;99.90;;;;;;5006624;28;20054;-74
2022/10/05 08:23:46;;;;;;;18.05;8.85;;;14.70;99.90;;;;;;5004705;28;20030;-74
2022/10/05 08:26:41;;;;;;;12.80;8.38;;;14.70;99.90;;;;;;5008556;28;20085;-75
2022/10/05 08:29:28;;;;;;;11.82;7.57;;;14.80;99.90;;;;;;5008050;28;20647;-74
2022/10/05 08:32:04;;;;;;;10.40;7.97;;;14.80;99.90;;;;;;5001946;28;20181;-75
2022/10/05 08:34:46;;;;;;;15.38;7.95;;;14.80;99.90;;;;;;5023347;28;21620;-74
2022/10/05 08:37:47;;;;;;;13.05;8.00;;;14.80;99.90;;;;;;4990606;28;20025;-74
2022/10/05 08:40:38;;;;;;;17.10;9.00;;;14.90;99.90;;;;;;4988357;28;20506;-74
2022/10/05 08:43:15;;;;;;;14.77;8.48;;;14.90;99.90;;;;;;4995206;28;20490;-75
2022/10/05 08:46:02;;;;;;;13.32;8.38;;;15.00;99.90;;;;;;4990678;28;20102;-74
2022/10/05 08:48:49;;;;;;;14.75;8.95;;;15.00;99.90;;;;;;4996513;28;20034;-74
2022/10/05 08:51:39;;;;;;;14.65;7.72;;;15.10;99.90;;;;;;5015830;28;20046;-74
2022/10/05 08:54:31;;;;;;;14.18;8.00;;;15.10;99.90;;;;;;5002879;28;20104;-74
2022/10/05 08:56:57;;;;;;;12.30;8.38;;;15.20;99.90;;;;;;5023109;28;20034;-74
2022/10/05 09:00:01;;;;;;;10.68;6.97;;;15.30;99.90;;;;;;5004053;28;20225;-74
2022/10/05 09:02:51;;;;;;;10.05;7.00;;;15.30;99.90;;;;;;4986845;28;20037;-74
2022/10/05 09:05:56;;;;;;;10.88;7.22;;;15.30;99.90;;;;;;5003350;28;20063;-74
2022/10/05 09:08:46;;;;;;;10.13;7.70;;;15.20;99.90;;;;;;5000310;28;20454;-74
2022/10/05 09:11:50;;;;;;;13.93;7.85;;;15.20;99.90;;;;;;5017453;28;20069;-74
2022/10/05 09:14:40;;;;;;;15.13;7.60;;;15.20;99.90;;;;;;4984201;28;20119;-74
2022/10/05 09:17:18;;;;;;;12.40;7.10;;;15.30;99.90;;;;;;5002724;28;20031;-74
2022/10/05 09:19:52;;;;;;;16.02;7.20;;;15.40;99.90;;;;;;5003147;28;20375;-74
2022/10/05 09:22:38;;;;;;;22.75;6.97;;;15.40;99.90;;;;;;5001813;28;20053;-74
2022/10/05 09:25:19;;;;;;;12.05;7.07;;;15.50;99.90;;;;;;5004448;28;20117;-74
2022/10/05 09:27:57;;;;;;;10.57;6.88;;;15.60;99.90;;;;;;5002812;28;20030;-74
2022/10/05 09:30:27;;;;;;;12.98;6.68;;;15.70;99.90;;;;;;5003726;28;20030;-75
2022/10/05 09:33:29;;;;;;;9.65;6.20;;;15.70;99.90;;;;;;5004978;28;20108;-74
2022/10/05 09:36:04;;;;;;;9.55;6.57;;;15.80;99.90;;;;;;5019464;28;20073;-74
2022/10/05 09:38:49;;;;;;;10.52;7.20;;;15.80;99.90;;;;;;5008052;28;20533;-74
2022/10/05 09:41:29;;;;;;;12.38;7.93;;;15.80;99.90;;;;;;5019210;28;20027;-74
2022/10/05 09:44:10;;;;;;;11.57;7.75;;;15.80;99.90;;;;;;5020758;28;20532;-74
2022/10/05 09:46:55;;;;;;;8.52;6.55;;;15.80;99.90;;;;;;5007862;28;20038;-74
2022/10/05 09:49:42;;;;;;;10.90;7.63;;;15.90;99.90;;;;;;5003350;28;20068;-74
2022/10/05 09:52:38;;;;;;;10.63;8.20;;;15.90;99.90;;;;;;5007156;28;20046;-75
2022/10/05 09:55:31;;;;;;;11.55;7.05;;;15.80;99.90;;;;;;5007874;28;20037;-74
2022/10/05 09:58:20;;;;;;;9.10;7.45;;;15.80;99.90;;;;;;4996413;28;20409;-74
2022/10/05 10:00:55;;;;;;;8.88;6.88;;;15.80;99.90;;;;;;5017120;28;20421;-74
2022/10/05 10:03:59;;;;;;;11.57;7.47;;;15.80;99.90;;;;;;5003813;28;20038;-74
2022/10/05 10:07:10;;;;;;;10.57;7.35;;;15.80;99.90;;;;;;5012090;28;20044;-74
2022/10/05 10:10:06;;;;;;;10.23;7.25;;;15.80;99.90;;;;;;4999312;28;20513;-74
2022/10/05 10:13:01;;;;;;;10.95;6.68;;;15.80;99.90;;;;;;5003757;28;20125;-74
2022/10/05 10:15:52;;;;;;;9.95;5.75;;;15.80;99.90;;;;;;5016872;28;20033;-74
2022/10/05 10:18:33;;;;;;;8.73;6.90;;;15.80;99.90;;;;;;5005130;28;20429;-74
2022/10/05 10:21:05;;;;;;;9.45;6.82;;;15.90;99.90;;;;;;5005388;28;20137;-74
2022/10/05 10:24:01;;;;;;;10.43;5.88;;;15.80;99.90;;;;;;5008395;28;20041;-74
2022/10/05 10:27:01;;;;;;;9.95;6.38;;;15.80;99.90;;;;;;5001701;28;20065;-73
2022/10/05 10:29:51;;;;;;;9.07;6.43;;;15.80;99.90;;;;;;4993098;28;20048;-74
2022/10/05 10:32:16;;;;;;;9.50;6.00;;;15.90;99.90;;;;;;5005203;28;20038;-73
2022/10/05 10:35:06;;;;;;;11.10;6.57;;;15.80;99.90;;;;;;5005990;28;20034;-74
2022/10/05 10:38:09;;;;;;;9.90;6.18;;;15.80;99.90;;;;;;5022321;28;20049;-75
2022/10/05 10:41:07;;;;;;;7.57;6.05;;;15.70;99.90;;;;;;5007637;28;20436;-75
2022/10/05 10:43:49;;;;;;;7.78;6.18;;;15.60;99.90;;;;;;5007921;28;20121;-74
2022/10/05 10:46:46;;;;;;;8.73;5.40;;;15.60;99.90;;;;;;5006983;28;20029;-74
2022/10/05 10:49:14;;;;;;;9.05;6.68;;;15.70;99.90;;;;;;5003511;28;20026;-74
2022/10/05 10:52:19;;;;;;;8.52;6.07;;;15.60;99.90;;;;;;5002960;28;20075;-74
2022/10/05 10:55:22;;;;;;;9.13;6.55;;;15.60;99.90;;;;;;5008824;28;20034;-74
2022/10/05 10:58:28;;;;;;;13.70;6.57;;;15.60;99.90;;;;;;5003969;28;20077;-73
2022/10/05 11:01:24;;;;;;;8.98;6.25;;;15.60;99.90;;;;;;5004880;28;20043;-73
2022/10/05 11:04:28;;;;;;;13.10;6.47;;;15.60;99.90;;;;;;5008753;28;20576;-74
2022/10/05 11:07:32;;;;;;;8.57;6.00;;;15.60;99.90;;;;;;5018991;28;20498;-73
2022/10/05 11:10:29;;;;;;;9.68;6.50;;;15.60;99.90;;;;;;5002887;28;20039;-74
2022/10/05 11:13:00;;;;;;;9.07;6.43;;;15.60;99.90;;;;;;4996250;28;20030;-73
2022/10/05 11:16:11;;;;;;;8.52;6.18;;;15.60;99.90;;;;;;5005179;28;20045;-73
2022/10/05 11:19:14;;;;;;;9.35;6.47;;;15.60;99.90;;;;;;5007695;28;20037;-74
2022/10/05 11:22:18;;;;;;;10.10;6.53;;;15.60;99.90;;;;;;5009925;28;20022;-73
2022/10/05 11:25:19;;;;;;;7.20;5.60;;;15.60;99.90;;;;;;5009351;28;20105;-73
2022/10/05 11:27:45;;;;;;;;;;;15.60;99.90;;;;;;5009025;28;20030;-74
2022/10/05 11:30:29;;;;;;;8.40;5.90;;;15.60;99.90;;;;;;4996282;28;19910;-73
2022/10/05 11:33:11;;;;;;;8.00;5.63;;;15.60;99.90;;;;;;4991911;28;20034;-74
2022/10/05 11:35:54;;;;;;;8.70;6.10;;;15.60;99.90;;;;;;5024911;28;20026;-73
2022/10/05 11:38:48;;;;;;;9.32;5.47;;;15.60;99.90;;;;;;5004114;28;20037;-75
2022/10/05 11:41:21;;;;;;;7.85;4.97;;;15.60;99.90;;;;;;5018354;28;20096;-74
2022/10/05 11:44:22;;;;;;;9.50;5.55;;;15.70;99.90;;;;;;5003135;28;20029;-74
2022/10/05 11:47:01;;;;;;;;;;;15.80;99.90;;;;;;5006544;28;20097;-75
2022/10/05 11:49:46;;;;;;;8.23;5.20;;;15.80;99.90;;;;;;5003710;28;19999;-73
2022/10/05 11:52:29;;;;;;;7.20;5.10;;;15.80;99.90;;;;;;5004855;28;20489;-74
2022/10/05 11:55:12;;;;;;;7.50;5.57;;;15.80;99.90;;;;;;5002133;28;20037;-73
2022/10/05 11:57:49;;;;;;;6.70;5.10;;;15.80;99.90;;;;;;5007250;28;20026;-73
2022/10/05 12:00:39;;;;;;;5.80;4.53;;;15.80;99.90;;;;;;5004435;28;20041;-73
2022/10/05 12:03:52;;;;;;;10.63;5.43;;;15.90;99.90;;;;;;5004192;28;20127;-73
2022/10/05 12:06:42;;;;;;;6.63;4.25;;;15.90;99.90;;;;;;4968829;28;20138;-73
2022/10/05 12:09:17;;;;;;;9.23;4.53;;;15.80;99.90;;;;;;4986969;28;20053;-74
2022/10/05 12:12:03;;;;;;;7.38;4.60;;;15.80;99.90;;;;;;5007438;28;20026;-73
2022/10/05 12:14:40;;;;;;;8.32;4.18;;;15.90;99.90;;;;;;5020354;28;20375;-74
2022/10/05 12:17:17;;;;;;;7.45;4.32;;;16.00;99.90;;;;;;5005540;28;20030;-74
2022/10/05 12:20:13;;;;;;;95.93;68.47;;;16.10;99.90;;;;;;4999824;28;20034;-74
2022/10/05 12:22:45;;;;;;;640.22;456.63;;;16.20;99.90;;;;;;5002804;28;20038;-75
2022/10/05 12:25:40;;;;;;;140.40;98.85;;;16.30;99.90;;;;;;5005698;28;20501;-74
2022/10/05 12:28:14;;;;;;;10.23;6.78;;;16.30;99.90;;;;;;5008563;28;20121;-75
2022/10/05 12:31:09;;;;;;;5.97;3.90;;;16.30;99.90;;;;;;5004200;28;20034;-74
2022/10/05 12:33:41;;;;;;;5.47;3.88;;;16.30;99.90;;;;;;5020404;28;20033;-75
2022/10/05 12:36:18;;;;;;;5.45;3.80;;;16.30;99.90;;;;;;5003529;28;20113;-75
2022/10/05 12:38:52;;;;;;;5.45;3.90;;;16.30;99.90;;;;;;5009168;28;20398;-75
2022/10/05 12:41:37;;;;;;;5.82;3.65;;;16.40;99.90;;;;;;5001778;28;20034;-74
2022/10/05 12:44:38;;;;;;;5.75;4.20;;;16.50;99.90;;;;;;5007403;28;20068;-75
2022/10/05 12:47:22;;;;;;;9.90;3.83;;;16.60;99.90;;;;;;5018825;28;20032;-75
2022/10/05 12:50:02;;;;;;;8.20;4.10;;;16.50;99.90;;;;;;5000831;28;20482;-75
2022/10/05 12:52:42;;;;;;;8.02;3.75;;;16.60;99.90;;;;;;4994052;28;20100;-74
2022/10/05 12:55:25;;;;;;;5.32;3.65;;;16.70;99.90;;;;;;5018450;28;20390;-75
2022/10/05 12:58:21;;;;;;;9.25;3.90;;;16.70;99.90;;;;;;4993526;28;20040;-80
2022/10/05 13:00:56;;;;;;;5.03;3.90;;;16.70;99.90;;;;;;5002608;28;20018;-76
2022/10/05 13:03:33;;;;;;;7.45;4.22;;;16.70;99.90;;;;;;5003508;28;20080;-76
2022/10/05 13:06:28;;;;;;;6.28;3.30;;;16.70;99.90;;;;;;5004758;28;20058;-76
2022/10/05 13:09:41;;;;;;;5.65;3.08;;;16.70;99.90;;;;;;5003870;28;20030;-75
2022/10/05 13:12:35;;;;;;;4.68;3.42;;;16.80;99.90;;;;;;5003217;28;20038;-76
2022/10/05 13:15:12;;;;;;;6.13;3.85;;;16.90;99.90;;;;;;4996042;28;20073;-75
2022/10/05 13:17:47;;;;;;;6.03;3.80;;;16.90;99.90;;;;;;5007399;28;20437;-76
2022/10/05 13:20:34;;;;;;;5.35;3.85;;;16.90;99.90;;;;;;5003238;28;20050;-76
2022/10/05 13:23:33;;;;;;;7.78;4.10;;;16.90;99.90;;;;;;5009980;28;20116;-75
2022/10/05 13:26:15;;;;;;;6.32;3.25;;;16.90;99.90;;;;;;5007498;28;20038;-75
2022/10/05 13:29:12;;;;;;;5.63;3.45;;;17.00;99.90;;;;;;5002257;28;20034;-75
2022/10/05 13:31:44;;;;;;;7.40;3.63;;;16.90;99.90;;;;;;4997576;28;20034;-75
2022/10/05 13:34:33;;;;;;;7.35;3.65;;;17.00;99.90;;;;;;5002098;28;20087;-76
2022/10/05 13:37:01;;;;;;;6.57;3.65;;;17.00;99.90;;;;;;5003905;28;20038;-75
2022/10/05 13:39:48;;;;;;;9.32;3.88;;;17.00;99.90;;;;;;5001212;28;20615;-75
2022/10/05 13:42:27;;;;;;;6.05;3.42;;;16.90;99.90;;;;;;5003286;28;20062;-75
2022/10/05 13:45:17;;;;;;;5.93;3.58;;;16.90;99.90;;;;;;5001593;28;20022;-76
2022/10/05 13:48:09;;;;;;;6.45;3.90;;;16.80;99.90;;;;;;5001941;28;20121;-75
2022/10/05 13:50:41;;;;;;;;;;;16.80;99.90;;;;;;5003856;28;20030;-76
2022/10/05 13:53:17;;;;;;;8.88;3.40;;;16.90;99.90;;;;;;5005344;28;20002;-76
2022/10/05 13:55:58;;;;;;;4.95;3.50;;;16.90;99.90;;;;;;5004488;28;20045;-75
2022/10/05 13:58:46;;;;;;;5.03;3.50;;;16.90;99.90;;;;;;5007122;28;20014;-76
2022/10/05 14:01:30;;;;;;;5.72;3.95;;;17.00;99.90;;;;;;5006309;28;20044;-76
2022/10/05 14:04:20;;;;;;;5.22;3.40;;;17.00;99.90;;;;;;5001075;28;20077;-75
2022/10/05 14:06:47;;;;;;;7.03;3.17;;;17.00;99.90;;;;;;4999619;28;20037;-75
2022/10/05 14:09:34;;;;;;;5.00;3.22;;;17.00;99.90;;;;;;5000894;28;20040;-74